Fort Davis, TX (79734)

5:58 PM CST on January 24, 2017 (GMT -0600)
3 Dog Ranch | | Change Station
Active Advisory: High Wind Warning

Elev 5274 ft 30.61 °N, 103.97 °W | Updated 1 second ago

Clear
Clear
59.9 °F
Feels Like 59.9 °F
N
8.1
Wind Variable Wind from NW
Gusts 11.4 mph

Today
High -- | Low -- °F
--% Chance of Precip.
Yesterday
High -- | Low -- °F
Precip. -- in
Pressure 29.74 in
Visibility 10.0 miles
Clouds Mostly Cloudy 6000 ft
Dew Point 15 °F
Humidity 17%
Rainfall 0.00 in
Snow Depth Not available.
7:50 AM 6:25 PM
Waning Crescent, 9% visible
METAR KMRF 242356Z AUTO 28014G21KT 10SM BKN060 14/M02 A2979 RMK AO2 SLP070 T01441022 10233 20144 51016
Pressure 29.74 in
Visibility 10.0 miles
Clouds Mostly Cloudy 6000 ft
Dew Point 15 °F
Humidity 17%
Rainfall 0.00 in
Snow Depth Not available.
7:50 AM 6:25 PM
Waning Crescent, 9% visible
METAR KMRF 242356Z AUTO 28014G21KT 10SM BKN060 14/M02 A2979 RMK AO2 SLP070 T01441022 10233 20144 51016

Get Your Daily Forecast Email!

Thanks for signing up!

Be on the lookout for a verification email in your inbox.

You'll start receiving the daily forecast at 8 AM.

×

10-Day Weather Forecast

Almanac

Astronomy

Jan. 24, 2017 Rise Set
Actual Time
Civil Twilight
Nautical Twilight
Astronomical Twilight
Moon
Length of Visible Light
Length of Day
Tomorrow will be .
, % of the Moon is Illuminated

Today's Extremes

State Highs State Lows

Community

WunderPhotos

Upload Photos

1,962,540 photos uploaded!

WunderBlog® & News

Nearby

Air Quality

  Air Quality AQ Index Pollutant
Not available.

Snow Depth

Station Depth Elevation

Earthquake Activity

City Distance Mag. Time & Date
Minimum magnitude displayed is 2.5.

Coastal Water Temperatures

Place Temperature

Stations

Nearby Weather Stations

Station Location Temp. Windchill Dew Point Humidity Wind Precip. Elev Updated Type
                   

Watches & Warnings

High Wind Warning
Issued: 1:06 PM MST Jan. 24, 2017 – National Weather Service

... High Wind Warning remains in effect until 6 PM CST /5 PM MST/
this evening...

* timing... until 6 PM CST Tuesday.

* Winds... southwest to west 25 to 45 mph with gusts to 60 to 75
mph. These winds will mostly occur above 6000 ft, except for
the Guadalupe Mountains where strong winds will occur below
6000 ft.

* Impacts... strong winds can cause power disruptions... hazards
to trailers and high profile vehicles and blowing dust that
can reduce visibility suddenly. Turbulence near the mountains
will be hazardous for light aircraft.

Precautionary/preparedness actions...

A High Wind Warning means a hazardous high wind event is expected
or occurring. Sustained wind speeds of at least 40 mph or gusts
of 58 mph or more can lead to property damage.